Time;durP1;ratioP1;P1;durP2;ratioP2;P2;SDS_P1;SDS_P2;PMS_P1;PMS_P2;Temp;Humidity;BMP_temperature;BMP_pressure;BME280_temperature;BME280_humidity;BME280_pressure;Samples;Min_cycle;Max_cycle;Signal;HPM_P1;HPM_P2
2021/08/07 00:02:07;;;;;;;2.20;2.00;;;19.60;77.60;;;;;;5042716;28;20187;-91
2021/08/07 00:04:32;;;;;;;2.28;2.08;;;19.70;77.30;;;;;;5060003;28;20219;-90
2021/08/07 00:06:58;;;;;;;3.00;2.25;;;19.60;77.00;;;;;;5030486;28;20274;-91
2021/08/07 00:09:24;;;;;;;2.88;2.00;;;19.60;77.70;;;;;;5059462;28;20661;-91
2021/08/07 00:11:50;;;;;;;3.17;2.10;;;19.60;77.30;;;;;;5059972;28;20201;-91
2021/08/07 00:14:15;;;;;;;2.33;2.13;;;19.80;76.80;;;;;;5062876;28;20323;-91
2021/08/07 00:16:41;;;;;;;4.20;2.17;;;19.70;77.00;;;;;;5063287;28;20577;-91
2021/08/07 00:19:07;;;;;;;3.08;2.30;;;19.70;76.70;;;;;;5044002;28;20214;-91
2021/08/07 00:21:33;;;;;;;2.20;2.00;;;19.70;76.20;;;;;;5050563;28;20188;-92
2021/08/07 00:23:59;;;;;;;4.35;2.30;;;19.70;76.30;;;;;;5064060;28;20201;-91
2021/08/07 00:26:24;;;;;;;3.80;2.20;;;19.60;76.30;;;;;;5047691;28;20285;-92
2021/08/07 00:28:50;;;;;;;3.10;2.25;;;19.60;76.20;;;;;;5046615;28;20207;-91
2021/08/07 00:31:16;;;;;;;2.72;1.90;;;19.40;77.20;;;;;;5063463;28;20214;-91
2021/08/07 00:33:42;;;;;;;3.33;2.33;;;19.40;77.10;;;;;;5062859;28;20279;-91
2021/08/07 00:36:07;;;;;;;2.30;2.10;;;19.40;76.90;;;;;;5062958;28;20204;-91
2021/08/07 00:38:33;;;;;;;2.65;2.25;;;19.40;77.10;;;;;;5061360;28;20208;-91
2021/08/07 00:40:59;;;;;;;4.05;2.15;;;19.40;77.20;;;;;;5045412;28;20253;-91
2021/08/07 00:43:24;;;;;;;2.45;2.10;;;19.50;77.10;;;;;;5062353;28;20655;-91
2021/08/07 00:45:50;;;;;;;3.05;2.30;;;19.50;77.10;;;;;;5048271;28;20188;-90
2021/08/07 00:48:16;;;;;;;2.33;2.08;;;19.40;77.50;;;;;;5042398;28;20777;-92
2021/08/07 00:50:45;;;;;;;5.45;2.28;;;19.40;77.70;;;;;;5028424;28;20184;-91
2021/08/07 00:53:12;;;;;;;2.30;2.10;;;19.20;77.70;;;;;;5062311;28;20666;-92
2021/08/07 00:55:45;;;;;;;4.05;2.20;;;18.80;79.50;;;;;;5045432;28;20231;-91
2021/08/07 00:58:10;;;;;;;4.57;2.35;;;18.60;80.50;;;;;;5046854;28;20261;-91
2021/08/07 01:00:36;;;;;;;3.38;1.98;;;18.70;80.50;;;;;;5028856;28;20188;-91
2021/08/07 01:03:34;;;;;;;2.00;1.90;;;18.80;79.70;;;;;;5040404;28;20188;-92
2021/08/07 01:06:16;;;;;;;2.42;2.20;;;18.90;79.70;;;;;;5054401;28;20793;-92
2021/08/07 01:09:13;;;;;;;4.15;2.00;;;18.90;79.60;;;;;;5081493;28;20199;-92
2021/08/07 01:12:02;;;;;;;2.60;2.38;;;19.10;78.80;;;;;;5064281;28;20184;-92
2021/08/07 01:14:35;;;;;;;3.58;2.35;;;19.10;78.30;;;;;;5048142;28;20202;-93
2021/08/07 01:17:04;;;;;;;3.30;2.20;;;19.10;78.70;;;;;;5048046;28;20314;-92
2021/08/07 01:19:50;;;;;;;4.47;2.63;;;19.00;78.90;;;;;;5064425;28;20207;-92
2021/08/07 01:22:19;;;;;;;2.33;2.10;;;18.70;80.00;;;;;;5064431;28;20627;-93
2021/08/07 01:25:01;;;;;;;5.75;2.33;;;18.70;80.30;;;;;;5081801;28;20224;-94
2021/08/07 01:27:30;;;;;;;2.78;1.90;;;18.70;80.20;;;;;;5047678;28;20877;-92
2021/08/07 01:29:58;;;;;;;5.00;2.20;;;18.60;81.00;;;;;;5048435;28;20183;-93
2021/08/07 01:32:25;;;;;;;2.85;2.17;;;18.60;80.50;;;;;;5064570;28;20190;-93
2021/08/07 01:34:53;;;;;;;3.40;2.25;;;18.70;80.80;;;;;;5047905;28;20600;-92
2021/08/07 01:37:20;;;;;;;2.13;2.03;;;18.70;80.60;;;;;;5064112;28;20298;-93
2021/08/07 01:39:48;;;;;;;3.60;2.05;;;18.80;80.20;;;;;;5081183;28;20238;-92
2021/08/07 01:42:13;;;;;;;2.70;2.10;;;18.90;79.80;;;;;;5064031;28;20184;-93
2021/08/07 01:44:39;;;;;;;3.45;2.20;;;18.90;79.60;;;;;;5064088;28;20216;-93
2021/08/07 01:47:36;;;;;;;2.30;2.10;;;18.90;79.70;;;;;;5080622;28;20176;-92
2021/08/07 01:50:07;;;;;;;2.33;2.00;;;19.00;79.80;;;;;;5081748;28;20225;-93
2021/08/07 01:52:41;;;;;;;3.22;2.00;;;18.90;80.00;;;;;;5064380;28;20191;-92
2021/08/07 01:55:12;;;;;;;4.15;2.58;;;19.00;79.80;;;;;;5048304;28;20183;-93
2021/08/07 01:57:42;;;;;;;3.63;2.20;;;18.90;80.00;;;;;;5081304;28;20199;-92
2021/08/07 02:00:12;;;;;;;2.75;2.20;;;18.70;80.90;;;;;;5046525;28;20664;-93
2021/08/07 02:02:40;;;;;;;3.50;2.00;;;18.70;81.20;;;;;;5063356;28;20180;-92
2021/08/07 02:05:06;;;;;;;4.25;2.47;;;18.80;80.80;;;;;;5063883;28;20184;-93
2021/08/07 02:07:32;;;;;;;2.20;2.00;;;18.90;80.50;;;;;;5063581;28;20209;-94
2021/08/07 02:09:58;;;;;;;2.20;2.00;;;19.00;80.20;;;;;;5047091;28;20270;-92
2021/08/07 02:12:24;;;;;;;2.75;2.20;;;19.10;79.80;;;;;;5063826;28;20187;-92
2021/08/07 02:14:52;;;;;;;3.90;2.10;;;19.00;80.30;;;;;;5081399;28;20176;-92
2021/08/07 02:17:19;;;;;;;2.17;1.80;;;19.00;80.30;;;;;;5063260;28;20203;-92
2021/08/07 02:19:46;;;;;;;5.20;2.30;;;19.10;80.00;;;;;;5046795;28;20234;-92
2021/08/07 02:22:11;;;;;;;3.40;2.05;;;19.10;79.90;;;;;;5063713;28;20199;-92
2021/08/07 02:24:37;;;;;;;2.13;2.03;;;19.10;79.80;;;;;;5063666;28;20188;-92
2021/08/07 02:27:04;;;;;;;2.67;2.15;;;19.10;79.60;;;;;;5046425;28;20217;-94
2021/08/07 02:29:32;;;;;;;2.60;1.90;;;19.20;79.50;;;;;;5046528;28;20211;-93
2021/08/07 02:31:58;;;;;;;2.35;1.95;;;19.10;80.00;;;;;;5046410;28;20184;-92
2021/08/07 02:34:27;;;;;;;2.95;2.00;;;19.00;80.40;;;;;;5080405;28;20187;-93
2021/08/07 02:36:55;;;;;;;3.45;2.05;;;18.90;80.70;;;;;;5062805;28;20290;-94
2021/08/07 02:39:22;;;;;;;3.17;2.30;;;18.90;81.00;;;;;;5046442;28;20271;-93
2021/08/07 02:41:48;;;;;;;2.88;2.25;;;18.90;81.00;;;;;;5063219;28;20626;-93
2021/08/07 02:44:15;;;;;;;2.95;2.20;;;19.00;81.00;;;;;;5063253;28;20179;-93
2021/08/07 02:46:42;;;;;;;2.15;1.95;;;19.00;81.00;;;;;;5046805;28;20191;-93
2021/08/07 02:49:08;;;;;;;3.35;2.10;;;19.00;81.10;;;;;;5046615;28;20207;-93
2021/08/07 02:51:35;;;;;;;3.63;2.03;;;18.90;81.00;;;;;;5046344;28;20182;-93
2021/08/07 02:54:01;;;;;;;3.65;2.40;;;19.00;81.10;;;;;;5046321;28;20611;-93
2021/08/07 02:56:27;;;;;;;5.05;2.40;;;19.10;80.90;;;;;;5062948;28;20590;-93
2021/08/07 02:58:53;;;;;;;2.50;2.28;;;19.10;80.70;;;;;;5080398;28;20223;-94
2021/08/07 03:01:19;;;;;;;4.40;2.10;;;19.00;81.20;;;;;;5046507;28;20187;-93
2021/08/07 03:03:45;;;;;;;4.75;2.17;;;19.10;81.50;;;;;;5081217;28;20172;-93
2021/08/07 03:06:10;;;;;;;3.40;2.15;;;19.00;81.70;;;;;;5081374;28;20195;-93
2021/08/07 03:08:36;;;;;;;4.22;2.20;;;18.90;81.80;;;;;;5050503;28;20215;-93
2021/08/07 03:11:03;;;;;;;3.75;2.28;;;19.00;81.30;;;;;;5368579;23;20266;-89
2021/08/07 03:13:28;;;;;;;2.83;2.47;;;19.10;81.00;;;;;;5053044;28;20228;-87
2021/08/07 03:15:54;;;;;;;2.83;2.05;;;19.00;81.50;;;;;;5049094;28;20195;-88
2021/08/07 03:18:20;;;;;;;4.13;2.13;;;18.90;81.70;;;;;;5051583;28;20192;-87
2021/08/07 03:20:45;;;;;;;5.18;2.15;;;19.00;81.70;;;;;;5047916;28;20227;-88
2021/08/07 03:23:11;;;;;;;6.60;2.20;;;19.00;81.80;;;;;;5056057;28;20188;-87
2021/08/07 03:25:37;;;;;;;3.78;2.15;;;18.80;82.20;;;;;;5055868;28;20180;-87
2021/08/07 03:28:03;;;;;;;2.40;2.20;;;18.70;82.80;;;;;;5040347;28;20200;-88
2021/08/07 03:30:29;;;;;;;2.75;2.20;;;18.70;83.40;;;;;;5041466;28;20224;-87
2021/08/07 03:32:55;;;;;;;4.60;2.13;;;18.50;84.40;;;;;;5043364;28;20212;-87
2021/08/07 03:35:21;;;;;;;4.50;2.15;;;18.40;84.60;;;;;;5037000;28;20192;-88
2021/08/07 03:37:48;;;;;;;3.10;2.20;;;18.40;84.40;;;;;;5052472;28;20903;-87
2021/08/07 03:40:14;;;;;;;2.30;2.10;;;18.60;83.90;;;;;;5048442;28;20246;-86
2021/08/07 03:42:41;;;;;;;2.13;2.00;;;18.70;83.40;;;;;;5037636;28;20187;-87
2021/08/07 03:45:09;;;;;;;3.80;2.22;;;18.80;82.70;;;;;;5037680;28;20194;-86
2021/08/07 03:47:51;;;;;;;3.55;2.05;;;18.80;82.30;;;;;;5053878;28;20181;-86
2021/08/07 03:50:18;;;;;;;2.20;2.10;;;18.90;81.90;;;;;;5050605;28;20232;-87
2021/08/07 03:52:45;;;;;;;2.75;2.20;;;19.00;81.50;;;;;;5057105;28;20440;-87
2021/08/07 03:55:10;;;;;;;2.75;2.55;;;18.90;81.80;;;;;;5059346;28;20553;-87
2021/08/07 03:57:54;;;;;;;2.28;2.08;;;18.90;82.10;;;;;;5055771;28;20215;-87
2021/08/07 04:00:24;;;;;;;3.03;2.38;;;19.00;82.00;;;;;;5055978;28;20228;-87
2021/08/07 04:02:50;;;;;;;4.40;2.17;;;18.90;82.10;;;;;;5037637;28;20191;-87
2021/08/07 04:05:16;;;;;;;6.53;2.40;;;18.90;82.00;;;;;;5050633;28;20190;-87
2021/08/07 04:07:42;;;;;;;2.47;2.28;;;18.90;82.30;;;;;;5046504;28;20656;-86
2021/08/07 04:10:08;;;;;;;2.95;1.90;;;19.00;82.00;;;;;;5049389;28;20219;-85
2021/08/07 04:12:34;;;;;;;3.85;2.47;;;19.00;81.40;;;;;;5058992;28;20300;-87
2021/08/07 04:15:00;;;;;;;3.17;2.10;;;18.90;80.70;;;;;;5059715;28;20617;-87
2021/08/07 04:17:26;;;;;;;3.42;2.00;;;18.80;80.50;;;;;;5046248;28;20217;-86
2021/08/07 04:19:52;;;;;;;4.00;2.50;;;18.70;80.40;;;;;;5058558;28;20216;-86
2021/08/07 04:22:17;;;;;;;3.20;2.30;;;18.80;80.40;;;;;;5060743;28;20255;-86
2021/08/07 04:24:43;;;;;;;4.25;2.30;;;18.80;80.10;;;;;;5062949;28;20184;-88
2021/08/07 04:27:09;;;;;;;2.80;2.53;;;18.80;80.00;;;;;;5060372;28;20217;-87
2021/08/07 04:29:35;;;;;;;3.65;2.28;;;18.80;79.80;;;;;;5058567;28;20216;-87
2021/08/07 04:32:00;;;;;;;3.85;2.65;;;18.90;80.20;;;;;;5063590;28;20250;-86
2021/08/07 04:34:26;;;;;;;5.32;2.50;;;18.90;79.80;;;;;;5061824;28;20312;-88
2021/08/07 04:36:52;;;;;;;2.85;2.20;;;18.90;79.20;;;;;;5052216;28;20205;-86
2021/08/07 04:39:18;;;;;;;5.13;2.30;;;18.90;80.10;;;;;;5052261;28;20248;-85
2021/08/07 04:41:44;;;;;;;2.63;2.10;;;18.90;81.40;;;;;;5043846;28;20181;-86
2021/08/07 04:44:10;;;;;;;3.40;2.00;;;18.80;82.40;;;;;;5055269;28;20181;-87
2021/08/07 04:46:36;;;;;;;2.28;2.03;;;18.70;82.90;;;;;;5061148;28;20896;-87
2021/08/07 04:49:01;;;;;;;2.35;2.03;;;18.70;82.60;;;;;;5059095;28;20198;-87
2021/08/07 04:51:28;;;;;;;2.60;2.35;;;18.70;82.40;;;;;;5043434;28;20265;-87
2021/08/07 04:53:53;;;;;;;4.65;2.40;;;18.70;81.50;;;;;;5060180;28;20197;-88
2021/08/07 04:56:19;;;;;;;2.97;2.30;;;18.70;80.90;;;;;;5032818;28;20204;-87
2021/08/07 04:58:46;;;;;;;2.85;2.15;;;18.70;81.20;;;;;;5064514;28;20196;-88
2021/08/07 05:01:11;;;;;;;3.47;2.65;;;18.80;80.80;;;;;;5067952;28;20204;-86
2021/08/07 05:03:37;;;;;;;3.80;2.40;;;18.80;79.90;;;;;;5067068;28;20252;-87
2021/08/07 05:06:03;;;;;;;3.08;2.22;;;18.80;80.00;;;;;;5044417;28;20208;-86
2021/08/07 05:08:28;;;;;;;5.82;2.20;;;18.70;80.10;;;;;;5045020;28;20203;-88
2021/08/07 05:10:56;;;;;;;3.83;2.20;;;18.80;79.50;;;;;;5059514;28;20650;-87
2021/08/07 05:13:22;;;;;;;2.95;2.20;;;18.80;79.90;;;;;;5063650;28;20191;-88
2021/08/07 05:15:47;;;;;;;5.32;2.58;;;18.90;79.60;;;;;;5045990;28;20193;-88
2021/08/07 05:18:13;;;;;;;2.40;2.20;;;18.80;79.90;;;;;;5055699;28;20736;-87
2021/08/07 05:20:39;;;;;;;5.78;2.50;;;18.90;79.20;;;;;;5050678;28;20243;-87
2021/08/07 05:23:05;;;;;;;3.40;2.28;;;18.90;78.90;;;;;;5040069;28;20192;-88
2021/08/07 05:25:30;;;;;;;3.17;2.10;;;19.00;78.20;;;;;;5057876;28;20576;-89
2021/08/07 05:27:56;;;;;;;3.30;2.40;;;19.00;78.80;;;;;;5058940;28;20200;-88
2021/08/07 05:30:22;;;;;;;8.60;2.50;;;19.10;79.30;;;;;;5061462;28;20216;-87
2021/08/07 05:32:48;;;;;;;5.10;2.50;;;19.10;78.50;;;;;;5058685;28;20248;-88
2021/08/07 05:35:14;;;;;;;2.92;2.30;;;19.10;79.40;;;;;;5041391;28;20207;-88
2021/08/07 05:37:41;;;;;;;2.72;2.35;;;19.10;80.10;;;;;;5042601;28;20221;-88
2021/08/07 05:40:09;;;;;;;2.83;2.00;;;19.10;80.30;;;;;;5042936;28;20262;-88
2021/08/07 05:42:35;;;;;;;2.67;2.05;;;19.10;81.60;;;;;;5056146;28;20185;-89
2021/08/07 05:45:03;;;;;;;3.25;2.50;;;19.10;81.80;;;;;;5059929;28;20191;-88
2021/08/07 05:47:29;;;;;;;4.07;2.13;;;19.10;80.60;;;;;;5049036;28;20185;-88
2021/08/07 05:49:55;;;;;;;2.65;2.25;;;19.20;80.90;;;;;;5056034;28;20298;-89
2021/08/07 05:52:21;;;;;;;2.45;2.25;;;19.00;81.90;;;;;;5050672;28;20711;-88
2021/08/07 05:54:46;;;;;;;3.25;2.20;;;19.00;82.10;;;;;;5051809;28;20194;-87
2021/08/07 05:57:12;;;;;;;4.68;2.40;;;19.20;81.90;;;;;;5051557;28;20219;-87
2021/08/07 05:59:38;;;;;;;3.40;2.00;;;19.10;81.80;;;;;;5055791;28;20216;-88
2021/08/07 06:02:03;;;;;;;3.22;2.30;;;19.10;82.00;;;;;;5042394;28;20184;-88
2021/08/07 06:04:29;;;;;;;6.03;2.63;;;19.10;81.50;;;;;;5040483;28;20542;-88
2021/08/07 06:06:55;;;;;;;3.33;2.33;;;19.20;81.50;;;;;;5051516;28;20250;-88
2021/08/07 06:09:21;;;;;;;3.83;2.65;;;19.30;81.60;;;;;;5050102;28;20208;-87
2021/08/07 06:11:46;;;;;;;6.63;2.60;;;19.50;80.50;;;;;;5057772;28;20208;-88
2021/08/07 06:14:12;;;;;;;4.47;2.30;;;19.50;80.70;;;;;;5036718;28;20201;-88
2021/08/07 06:16:38;;;;;;;3.30;2.60;;;19.60;79.80;;;;;;5055859;28;20217;-89
2021/08/07 06:19:04;;;;;;;2.92;2.13;;;19.80;78.20;;;;;;5056104;28;20199;-88
2021/08/07 06:21:29;;;;;;;2.83;2.53;;;19.80;77.80;;;;;;5056277;28;20214;-87
2021/08/07 06:23:58;;;;;;;3.08;2.50;;;19.70;78.00;;;;;;5055165;28;20185;-88
2021/08/07 06:26:25;;;;;;;3.33;2.15;;;19.60;78.40;;;;;;5038888;28;20194;-88
2021/08/07 06:28:51;;;;;;;2.50;2.30;;;19.50;78.40;;;;;;5058529;28;20356;-86
2021/08/07 06:31:17;;;;;;;4.55;2.55;;;19.30;79.10;;;;;;5058394;28;20210;-87
2021/08/07 06:33:43;;;;;;;4.60;2.95;;;19.30;79.50;;;;;;5045606;28;20209;-86
2021/08/07 06:36:08;;;;;;;3.22;2.25;;;19.50;78.30;;;;;;5032813;28;20223;-87
2021/08/07 06:38:34;;;;;;;4.13;2.50;;;19.70;76.50;;;;;;5045441;28;20690;-88
2021/08/07 06:41:00;;;;;;;3.15;2.30;;;19.80;76.80;;;;;;5056279;28;20207;-87
2021/08/07 06:43:26;;;;;;;3.72;2.50;;;19.80;76.20;;;;;;5044328;28;20198;-87
2021/08/07 06:45:52;;;;;;;4.15;2.65;;;19.70;76.90;;;;;;5041135;28;20198;-89
2021/08/07 06:48:17;;;;;;;4.20;2.40;;;19.70;77.20;;;;;;5047106;28;20198;-87
2021/08/07 06:50:43;;;;;;;2.47;2.28;;;19.70;77.50;;;;;;5053814;28;20223;-88
2021/08/07 06:53:09;;;;;;;4.30;2.90;;;19.80;76.10;;;;;;5047830;28;20854;-89
2021/08/07 06:55:35;;;;;;;4.00;2.53;;;20.00;74.60;;;;;;5053197;28;20236;-87
2021/08/07 06:58:00;;;;;;;2.40;2.20;;;20.00;74.20;;;;;;5049707;28;20216;-87
2021/08/07 07:00:26;;;;;;;3.30;2.75;;;20.00;75.20;;;;;;5049162;28;20207;-87
2021/08/07 07:02:52;;;;;;;2.67;2.47;;;20.00;75.50;;;;;;5050542;28;20214;-86
2021/08/07 07:05:18;;;;;;;3.08;2.22;;;19.90;75.90;;;;;;5044602;28;20193;-89
2021/08/07 07:07:44;;;;;;;3.58;2.58;;;19.90;76.40;;;;;;5048714;28;20265;-87
2021/08/07 07:10:12;;;;;;;4.60;2.70;;;19.90;76.10;;;;;;5046705;28;20203;-87
2021/08/07 07:12:38;;;;;;;4.60;2.55;;;20.10;74.80;;;;;;5049728;28;20226;-89
2021/08/07 07:15:05;;;;;;;2.92;2.05;;;20.00;75.40;;;;;;5044810;28;20180;-87
2021/08/07 07:17:31;;;;;;;3.75;2.38;;;20.00;76.40;;;;;;5029084;28;20214;-89
2021/08/07 07:19:57;;;;;;;4.50;2.70;;;20.00;76.90;;;;;;5042800;28;20269;-88
2021/08/07 07:22:24;;;;;;;5.43;2.58;;;20.20;74.90;;;;;;5028401;28;20194;-90
2021/08/07 07:24:49;;;;;;;9.20;2.90;;;20.20;76.50;;;;;;5062094;28;20185;-86
2021/08/07 07:27:15;;;;;;;2.72;2.50;;;20.20;75.80;;;;;;5060296;28;20204;-86
2021/08/07 07:29:41;;;;;;;3.88;2.72;;;20.10;76.30;;;;;;5068468;28;20226;-88
2021/08/07 07:32:09;;;;;;;4.43;2.60;;;20.10;76.20;;;;;;5037930;28;20213;-87
2021/08/07 07:34:36;;;;;;;2.83;2.35;;;20.20;75.10;;;;;;5033125;28;20189;-88
2021/08/07 07:37:02;;;;;;;3.33;2.50;;;20.50;75.50;;;;;;5041946;28;20222;-87
2021/08/07 07:39:28;;;;;;;3.17;2.40;;;20.50;74.50;;;;;;5045199;28;20203;-88
2021/08/07 07:41:53;;;;;;;2.60;2.40;;;20.60;73.10;;;;;;5046769;28;20693;-86
2021/08/07 07:44:19;;;;;;;5.53;2.67;;;20.60;72.80;;;;;;5042719;28;20641;-84
2021/08/07 07:46:45;;;;;;;7.93;2.80;;;20.70;72.70;;;;;;5041139;28;20205;-86
2021/08/07 07:49:11;;;;;;;3.17;2.85;;;20.90;73.00;;;;;;5024779;28;20933;-87
2021/08/07 07:51:37;;;;;;;3.25;2.72;;;21.10;71.40;;;;;;5030067;28;20225;-86
2021/08/07 07:54:02;;;;;;;2.45;2.22;;;21.00;71.90;;;;;;5046539;28;20193;-87
2021/08/07 07:56:28;;;;;;;5.45;2.80;;;21.10;71.30;;;;;;5025024;28;20221;-86
2021/08/07 07:58:54;;;;;;;4.88;2.40;;;21.30;72.10;;;;;;5041773;28;20669;-88
2021/08/07 08:01:20;;;;;;;3.17;2.60;;;21.40;70.10;;;;;;5043232;28;20215;-86
2021/08/07 08:03:45;;;;;;;3.53;2.50;;;21.20;70.20;;;;;;5039801;28;20199;-85
2021/08/07 08:06:11;;;;;;;2.85;2.60;;;21.30;69.30;;;;;;5045528;28;20639;-85
2021/08/07 08:08:37;;;;;;;3.90;2.72;;;21.50;70.20;;;;;;5042063;28;20264;-86
2021/08/07 08:11:03;;;;;;;2.30;2.10;;;21.40;69.90;;;;;;5046241;28;20703;-86
2021/08/07 08:13:28;;;;;;;2.72;2.42;;;21.40;69.10;;;;;;5043288;28;20238;-84
2021/08/07 08:15:54;;;;;;;3.08;2.50;;;21.70;70.50;;;;;;5042492;28;20200;-87
2021/08/07 08:18:20;;;;;;;5.13;2.60;;;21.80;68.20;;;;;;5040584;28;20303;-85
2021/08/07 08:20:46;;;;;;;2.50;2.30;;;21.80;67.50;;;;;;5024598;28;20208;-87
2021/08/07 08:23:11;;;;;;;2.95;2.60;;;21.80;68.40;;;;;;5044386;28;20196;-87
2021/08/07 08:25:37;;;;;;;4.10;2.90;;;21.90;67.50;;;;;;5042384;28;20187;-87
2021/08/07 08:28:05;;;;;;;3.17;2.67;;;21.90;67.10;;;;;;5013178;28;20196;-89
2021/08/07 08:30:31;;;;;;;3.05;2.65;;;22.00;68.70;;;;;;5030547;28;20243;-90
2021/08/07 08:32:57;;;;;;;6.22;3.05;;;22.20;69.00;;;;;;5028027;28;20197;-90
2021/08/07 08:35:23;;;;;;;3.47;2.55;;;22.10;68.30;;;;;;5052650;28;20192;-89
2021/08/07 08:37:49;;;;;;;4.43;2.72;;;21.80;68.90;;;;;;5047381;28;20210;-89
2021/08/07 08:40:15;;;;;;;5.72;2.72;;;22.00;68.70;;;;;;5045566;28;20215;-90
2021/08/07 08:42:41;;;;;;;2.40;2.22;;;22.10;68.00;;;;;;5047178;28;20189;-90
2021/08/07 08:45:08;;;;;;;3.30;2.60;;;22.20;67.00;;;;;;5041767;28;20247;-90
2021/08/07 08:47:39;;;;;;;3.55;2.47;;;22.20;68.70;;;;;;5029611;28;20200;-90
2021/08/07 08:50:06;;;;;;;3.50;2.50;;;22.30;67.00;;;;;;5039628;28;20265;-91
2021/08/07 08:52:35;;;;;;;4.22;2.60;;;22.20;68.40;;;;;;5056888;28;20222;-91
2021/08/07 08:55:01;;;;;;;3.38;2.80;;;22.30;66.70;;;;;;5056709;28;20279;-90
2021/08/07 08:57:30;;;;;;;2.70;2.28;;;22.40;68.00;;;;;;5028820;28;20247;-89
2021/08/07 08:59:56;;;;;;;4.07;2.75;;;22.60;64.50;;;;;;5029044;28;20299;-90
2021/08/07 09:02:22;;;;;;;4.68;2.50;;;22.40;67.20;;;;;;5044533;28;20192;-90
2021/08/07 09:04:48;;;;;;;3.67;2.30;;;22.60;65.20;;;;;;5029506;28;20233;-90
2021/08/07 09:07:15;;;;;;;2.60;2.40;;;22.70;66.00;;;;;;5049334;28;20205;-90
2021/08/07 09:09:44;;;;;;;5.38;2.38;;;22.80;65.80;;;;;;5045917;28;20217;-90
2021/08/07 09:12:11;;;;;;;3.10;2.80;;;22.70;66.00;;;;;;5041065;28;20192;-90
2021/08/07 09:14:44;;;;;;;2.85;2.45;;;22.50;67.70;;;;;;5046651;28;20207;-90
2021/08/07 09:17:16;;;;;;;4.22;2.58;;;22.70;67.80;;;;;;5046313;28;20219;-89
2021/08/07 09:19:41;;;;;;;3.47;2.65;;;22.70;65.80;;;;;;5041709;28;20206;-90
2021/08/07 09:22:09;;;;;;;7.13;2.80;;;22.70;67.00;;;;;;5037572;28;20257;-90
2021/08/07 09:25:00;;;;;;;3.42;2.80;;;22.60;67.50;;;;;;5045184;28;20203;-89
2021/08/07 09:27:33;;;;;;;5.03;2.95;;;22.90;67.60;;;;;;5046207;28;20228;-90
2021/08/07 09:30:03;;;;;;;3.17;2.80;;;22.90;66.00;;;;;;5039592;28;20700;-90
2021/08/07 09:32:59;;;;;;;3.33;2.67;;;22.80;65.60;;;;;;5046490;28;20270;-90
2021/08/07 09:35:40;;;;;;;3.95;2.58;;;22.70;65.00;;;;;;5045900;28;20319;-90
2021/08/07 09:38:09;;;;;;;2.90;2.30;;;22.60;67.40;;;;;;5042737;28;20204;-89
2021/08/07 09:40:43;;;;;;;6.18;2.72;;;22.50;66.20;;;;;;5047225;28;20208;-89
2021/08/07 09:43:10;;;;;;;3.72;2.50;;;22.60;65.00;;;;;;5024483;28;20196;-90
2021/08/07 09:45:36;;;;;;;4.07;3.13;;;22.40;67.70;;;;;;5046277;28;20197;-90
2021/08/07 09:48:08;;;;;;;3.40;2.97;;;22.50;67.70;;;;;;5045017;28;20196;-89
2021/08/07 09:50:34;;;;;;;4.80;3.00;;;22.30;66.60;;;;;;5024388;28;20215;-90
2021/08/07 09:53:02;;;;;;;4.07;2.53;;;22.20;67.20;;;;;;5041318;28;20184;-89
2021/08/07 09:55:29;;;;;;;3.90;2.80;;;22.20;67.70;;;;;;5040506;28;20548;-89
2021/08/07 09:58:11;;;;;;;5.22;3.03;;;22.30;67.90;;;;;;5043217;28;20199;-92
2021/08/07 10:00:41;;;;;;;3.97;2.45;;;22.20;68.10;;;;;;5052604;28;20272;-93
2021/08/07 10:03:15;;;;;;;3.35;3.00;;;22.10;66.60;;;;;;5052189;28;20260;-89
2021/08/07 10:05:43;;;;;;;4.10;2.80;;;22.20;66.90;;;;;;5031263;28;20195;-90
2021/08/07 10:08:10;;;;;;;2.95;2.47;;;22.20;66.70;;;;;;5045419;28;20193;-91
2021/08/07 10:10:36;;;;;;;2.90;2.70;;;22.20;68.30;;;;;;5032297;28;20573;-93
2021/08/07 10:13:02;;;;;;;4.20;2.70;;;22.30;68.10;;;;;;5049382;28;20291;-90
2021/08/07 10:15:29;;;;;;;4.95;2.67;;;22.40;67.00;;;;;;5046568;28;20223;-91
2021/08/07 10:17:56;;;;;;;5.00;2.97;;;22.30;66.70;;;;;;5030407;28;20212;-91
2021/08/07 10:20:22;;;;;;;3.35;2.53;;;22.30;67.10;;;;;;5047685;28;20564;-90
2021/08/07 10:22:50;;;;;;;2.97;2.78;;;22.20;68.20;;;;;;5047888;28;20287;-90
2021/08/07 10:25:17;;;;;;;6.07;2.83;;;22.10;68.50;;;;;;5051541;28;20188;-89
2021/08/07 10:27:43;;;;;;;5.15;2.95;;;22.10;68.40;;;;;;5017202;28;20212;-90
2021/08/07 10:30:11;;;;;;;4.78;2.60;;;22.40;68.10;;;;;;5048227;28;20715;-91
2021/08/07 10:32:44;;;;;;;4.80;2.30;;;22.60;67.70;;;;;;5046045;28;20410;-90
2021/08/07 10:35:14;;;;;;;3.55;2.70;;;22.70;65.40;;;;;;5031263;28;20189;-90
2021/08/07 10:37:40;;;;;;;4.80;2.92;;;22.60;66.70;;;;;;5045125;28;20208;-88
2021/08/07 10:40:10;;;;;;;3.10;2.78;;;22.60;67.30;;;;;;5049253;28;20231;-89
2021/08/07 10:42:37;;;;;;;5.65;3.10;;;22.70;68.30;;;;;;5046770;28;20188;-89
2021/08/07 10:45:07;;;;;;;3.38;2.90;;;22.50;68.20;;;;;;5027960;28;20189;-90
2021/08/07 10:47:42;;;;;;;3.35;2.72;;;22.30;67.90;;;;;;5044862;28;20231;-90
2021/08/07 10:50:37;;;;;;;5.05;3.20;;;22.10;68.70;;;;;;5039122;28;20306;-90
2021/08/07 10:53:23;;;;;;;4.53;2.60;;;22.10;70.10;;;;;;5034658;28;20280;-88
2021/08/07 10:55:55;;;;;;;4.88;2.97;;;22.20;70.70;;;;;;5044112;28;20196;-89
2021/08/07 10:58:41;;;;;;;3.15;2.85;;;22.10;71.60;;;;;;5027127;28;20698;-90
2021/08/07 11:01:25;;;;;;;5.22;2.67;;;22.40;69.50;;;;;;5042219;28;20227;-89
2021/08/07 11:04:03;;;;;;;7.15;2.85;;;22.60;68.80;;;;;;5042258;28;20180;-88
2021/08/07 11:06:37;;;;;;;3.70;2.88;;;22.60;67.80;;;;;;5027094;28;20191;-88
2021/08/07 11:09:30;;;;;;;6.88;3.10;;;22.40;68.70;;;;;;5027086;28;20191;-89
2021/08/07 11:12:11;;;;;;;4.82;3.05;;;22.20;68.60;;;;;;5043144;28;20701;-89
2021/08/07 11:14:42;;;;;;;3.90;2.97;;;21.90;71.50;;;;;;5043558;28;21283;-88
2021/08/07 11:17:10;;;;;;;8.13;3.20;;;21.90;70.00;;;;;;5044115;28;20211;-89
2021/08/07 11:20:00;;;;;;;5.90;3.22;;;22.00;71.10;;;;;;5026505;28;20208;-90
2021/08/07 11:22:32;;;;;;;3.53;2.60;;;21.80;72.80;;;;;;5042214;28;20609;-90
2021/08/07 11:25:00;;;;;;;3.38;3.03;;;21.80;74.40;;;;;;5035576;28;20207;-90
2021/08/07 11:30:16;;;;;;;3.97;3.00;;;21.80;74.90;;;;;;5035699;28;20219;-91
2021/08/07 11:33:14;;;;;;;4.38;2.97;;;21.60;75.50;;;;;;5042403;28;20526;-89
2021/08/07 11:35:42;;;;;;;5.68;3.03;;;21.40;76.20;;;;;;5022917;28;20194;-89
2021/08/07 11:38:15;;;;;;;4.85;3.00;;;21.30;75.00;;;;;;5037077;28;20937;-90
2021/08/07 11:40:47;;;;;;;4.78;2.85;;;20.90;76.40;;;;;;5036823;28;20214;-89
2021/08/07 11:43:13;;;;;;;3.97;2.75;;;20.60;78.10;;;;;;5043608;28;20180;-91
2021/08/07 11:45:40;;;;;;;3.28;2.65;;;20.40;79.90;;;;;;5043188;28;20192;-89
2021/08/07 11:48:06;;;;;;;3.47;2.55;;;20.30;80.60;;;;;;5036644;28;20204;-88
2021/08/07 11:50:32;;;;;;;3.03;2.80;;;20.00;81.30;;;;;;5033397;28;20219;-90
2021/08/07 11:52:58;;;;;;;3.28;2.50;;;19.80;83.90;;;;;;5045995;28;20275;-88
2021/08/07 11:55:34;;;;;;;3.33;2.95;;;19.50;84.60;;;;;;5042715;28;20207;-88
2021/08/07 11:58:08;;;;;;;3.03;2.55;;;19.40;86.20;;;;;;5053511;28;20214;-89
2021/08/07 12:00:36;;;;;;;4.03;2.80;;;19.20;87.10;;;;;;5049049;28;20233;-88
2021/08/07 12:03:05;;;;;;;3.17;2.73;;;19.00;89.80;;;;;;5046870;28;20174;-90
2021/08/07 12:05:32;;;;;;;4.10;2.70;;;19.00;87.80;;;;;;5002176;28;20391;-92
2021/08/07 12:08:05;;;;;;;2.80;2.60;;;18.80;89.20;;;;;;5046276;28;20194;-91
2021/08/07 12:10:33;;;;;;;3.37;2.80;;;18.80;89.20;;;;;;5051633;28;20222;-91
2021/08/07 12:13:00;;;;;;;5.78;2.40;;;18.90;89.80;;;;;;5031653;28;20824;-89
2021/08/07 12:15:27;;;;;;;2.58;2.35;;;18.90;88.70;;;;;;5020414;28;20219;-89
2021/08/07 12:17:55;;;;;;;4.43;2.80;;;19.00;90.30;;;;;;5048206;28;20258;-90
2021/08/07 12:20:21;;;;;;;3.33;2.95;;;19.00;88.50;;;;;;5052935;28;20305;-90
2021/08/07 12:22:55;;;;;;;4.05;2.42;;;18.90;89.40;;;;;;5039637;28;20252;-92
2021/08/07 12:25:21;;;;;;;3.60;2.67;;;19.00;89.10;;;;;;5051812;28;20201;-91
2021/08/07 12:28:11;;;;;;;3.85;2.78;;;19.00;89.40;;;;;;5048885;28;20190;-91
2021/08/07 12:31:01;;;;;;;3.88;2.60;;;19.10;89.50;;;;;;5065279;28;20241;-91
2021/08/07 12:33:27;;;;;;;2.92;2.67;;;19.00;89.60;;;;;;5047576;28;20192;-92
2021/08/07 12:35:54;;;;;;;4.47;2.97;;;19.10;90.30;;;;;;5036178;28;20208;-91
2021/08/07 12:38:27;;;;;;;5.40;3.13;;;19.10;90.60;;;;;;5046999;28;20223;-88
2021/08/07 12:40:57;;;;;;;4.57;2.80;;;19.30;90.40;;;;;;5046813;28;20211;-88
2021/08/07 12:43:29;;;;;;;4.07;2.63;;;19.40;89.10;;;;;;5057103;28;20212;-89
2021/08/07 12:45:58;;;;;;;3.75;3.03;;;19.30;88.60;;;;;;5059527;28;20223;-90
2021/08/07 12:48:23;;;;;;;3.65;2.80;;;19.10;90.90;;;;;;5061357;28;20203;-88
2021/08/07 12:51:01;;;;;;;5.72;2.97;;;19.10;90.40;;;;;;5058162;28;20200;-89
2021/08/07 12:53:41;;;;;;;4.63;2.75;;;19.10;90.70;;;;;;5057100;28;20207;-88
2021/08/07 12:56:07;;;;;;;3.88;2.67;;;19.10;91.00;;;;;;5056011;28;20216;-90
2021/08/07 12:58:33;;;;;;;4.93;2.90;;;19.20;89.90;;;;;;5059628;28;20638;-87